Terminal Aerodrome Forecast
Issued by NWS Jackson, KY

Home | Current Version | Previous Version | Text Only | Print | Product List | Glossary On
Versions: 1 2 3 4 5 6 7 8 9 10 11 12 13 14 15 16 17 18
106
FTUS43 KJKL 211724
TAFLOZ
TAF
KLOZ 211724Z 2118/2218 18006KT P6SM OVC120
     FM212300 18005KT P6SM BKN200
     FM220700 VRB03KT P6SM SCT050 OVC120
     FM221200 12004KT 5SM -SHRA BR VCTS BKN005 OVC035CB
     FM221600 16007KT P6SM VCTS BKN025CB=

USA.gov is the U.S. government's official web portal to all federal, state and local government web resources and services.